createdAt,value
2022-11-13T00:01:47.372Z,101151.59
2022-11-13T00:04:35.243Z,101155.34
2022-11-13T00:07:23.381Z,101160.81
2022-11-13T00:10:11.619Z,101156.94
2022-11-13T00:12:59.483Z,101146.41
2022-11-13T00:16:02.589Z,101134.53
2022-11-13T00:18:50.647Z,101134.22
2022-11-13T00:21:38.701Z,101122.56
2022-11-13T00:24:29.074Z,101118.19
2022-11-13T00:27:16.875Z,101115.03
2022-11-13T00:30:05.849Z,101124.75
2022-11-13T00:32:56.023Z,101115.84
2022-11-13T00:35:43.803Z,101112.69
2022-11-13T00:38:31.906Z,101113.13
2022-11-13T00:41:20.040Z,101122.56
2022-11-13T00:44:08.287Z,101126.97
2022-11-13T00:46:56.045Z,101115.59
2022-11-13T00:49:43.826Z,101116.31
2022-11-13T00:52:31.797Z,101117.19
2022-11-13T00:55:19.548Z,101113.03
2022-11-13T00:58:07.420Z,101110.22
2022-11-13T01:00:55.353Z,101119.47
2022-11-13T01:03:43.526Z,101116.28
2022-11-13T01:06:31.338Z,101124.63
2022-11-13T01:09:19.144Z,101117.94
2022-11-13T01:12:06.955Z,101112.81
2022-11-13T01:14:55.042Z,101108.47
2022-11-13T01:17:43.022Z,101097.00
2022-11-13T01:20:32.607Z,101099.41
2022-11-13T01:23:20.425Z,101093.56
2022-11-13T01:26:30.036Z,101089.81
2022-11-13T01:29:17.914Z,101081.28
2022-11-13T01:32:05.864Z,101081.97
2022-11-13T01:34:53.771Z,101080.81
2022-11-13T01:37:44.211Z,101072.38
2022-11-13T01:40:31.994Z,101076.25
2022-11-13T01:43:38.413Z,101076.88
2022-11-13T01:46:35.951Z,101077.66
2022-11-13T01:49:37.785Z,101073.34
2022-11-13T01:52:34.258Z,101064.38
2022-11-13T01:55:22.303Z,101062.03
2022-11-13T01:58:11.436Z,101056.09
2022-11-13T02:00:59.695Z,101067.66
2022-11-13T02:03:47.635Z,101062.13
2022-11-13T02:06:51.496Z,101053.50
2022-11-13T02:09:59.914Z,101054.56
2022-11-13T02:12:52.067Z,101054.81
2022-11-13T02:15:40.799Z,101063.47
2022-11-13T02:18:30.793Z,101059.03
2022-11-13T02:21:43.330Z,101060.59
2022-11-13T02:24:44.832Z,101070.50
2022-11-13T02:27:40.519Z,101070.09
2022-11-13T02:30:32.680Z,101055.78
2022-11-13T02:33:33.817Z,101064.03
2022-11-13T02:36:24.287Z,101056.00
2022-11-13T02:39:14.228Z,101062.69
2022-11-13T02:42:02.240Z,101052.97
2022-11-13T02:44:50.245Z,101057.38
2022-11-13T02:47:38.224Z,101054.34
2022-11-13T02:50:26.148Z,101042.69
2022-11-13T02:53:13.995Z,101051.72
2022-11-13T02:56:01.913Z,101048.56
2022-11-13T02:58:49.935Z,101052.97
2022-11-13T03:01:37.902Z,101039.38
2022-11-13T03:04:31.477Z,101028.44
2022-11-13T03:07:26.453Z,101037.31
2022-11-13T03:10:14.888Z,101025.38
2022-11-13T03:13:03.035Z,101007.81
2022-11-13T03:15:50.817Z,101009.03
2022-11-13T03:18:38.948Z,101020.19
2022-11-13T03:21:26.824Z,101020.97
2022-11-13T03:24:14.655Z,101021.41
2022-11-13T03:27:02.753Z,101022.44
2022-11-13T03:29:50.681Z,101020.88
2022-11-13T03:32:38.471Z,101017.88
2022-11-13T03:35:30.476Z,101010.69
2022-11-13T03:38:19.207Z,101008.09
2022-11-13T03:41:07.123Z,101016.28
2022-11-13T03:43:55.107Z,101014.22
2022-11-13T03:46:43.075Z,101011.19
2022-11-13T03:49:30.901Z,101018.66
2022-11-13T03:52:18.765Z,101015.19
2022-11-13T03:55:06.933Z,101024.25
2022-11-13T03:57:55.715Z,101012.16
2022-11-13T04:00:45.276Z,101013.31
2022-11-13T04:03:33.308Z,101015.03
2022-11-13T04:06:21.996Z,101012.84
2022-11-13T04:09:09.916Z,101008.88
2022-11-13T04:11:57.741Z,101002.31
2022-11-13T04:14:45.599Z,100992.19
2022-11-13T04:17:34.087Z,100986.75
2022-11-13T04:20:22.291Z,100986.22
2022-11-13T04:23:12.595Z,100983.09
2022-11-13T04:26:00.483Z,100976.94
2022-11-13T04:28:48.271Z,100975.41
2022-11-13T04:31:36.188Z,100965.94
2022-11-13T04:34:24.064Z,100969.72
2022-11-13T04:37:11.967Z,100964.97
2022-11-13T04:39:59.827Z,100973.66
2022-11-13T04:42:50.243Z,100968.31
2022-11-13T04:45:38.097Z,100961.94
2022-11-13T04:48:26.180Z,100961.88
2022-11-13T04:51:14.368Z,100955.38
2022-11-13T04:54:02.360Z,100957.06
2022-11-13T04:56:50.231Z,100953.75
2022-11-13T04:59:38.107Z,100947.47
2022-11-13T05:02:26.270Z,100950.53
2022-11-13T05:05:14.144Z,100940.06
2022-11-13T05:08:02.106Z,100936.38
2022-11-13T05:10:49.879Z,100943.91
2022-11-13T05:13:37.805Z,100938.63
2022-11-13T05:16:25.733Z,100940.75
2022-11-13T05:19:13.668Z,100940.06
2022-11-13T05:22:01.891Z,100930.63
2022-11-13T05:24:49.651Z,100934.09
2022-11-13T05:27:37.432Z,100926.00
2022-11-13T05:30:25.482Z,100924.69
2022-11-13T05:33:13.313Z,100920.88
2022-11-13T05:36:20.467Z,100920.41
2022-11-13T05:39:08.286Z,100913.84
2022-11-13T05:41:56.096Z,100911.22
2022-11-13T05:44:43.951Z,100900.97
2022-11-13T05:47:33.362Z,100911.63
2022-11-13T05:50:21.233Z,100907.97
2022-11-13T05:53:11.376Z,100897.63
2022-11-13T05:56:08.244Z,100904.06
2022-11-13T05:58:57.729Z,100894.00
2022-11-13T06:01:45.528Z,100895.13
2022-11-13T06:04:33.529Z,100897.78
2022-11-13T06:07:21.536Z,100881.78
2022-11-13T06:10:09.738Z,100891.53
2022-11-13T06:12:57.643Z,100882.53
2022-11-13T06:15:45.457Z,100885.66
2022-11-13T06:18:34.490Z,100880.59
2022-11-13T06:21:26.656Z,100877.06
2022-11-13T06:24:14.511Z,100876.72
2022-11-13T06:27:02.378Z,100883.69
2022-11-13T06:29:50.188Z,100877.44
2022-11-13T06:32:38.093Z,100863.72
2022-11-13T06:35:26.283Z,100874.16
2022-11-13T06:38:14.508Z,100859.69
2022-11-13T06:41:04.158Z,100869.34
2022-11-13T06:43:52.328Z,100867.06
2022-11-13T06:46:40.154Z,100861.97
2022-11-13T06:49:27.935Z,100870.41
2022-11-13T06:52:15.719Z,100873.13
2022-11-13T06:55:03.720Z,100866.09
2022-11-13T06:57:51.526Z,100872.78
2022-11-13T07:00:40.743Z,100859.44
2022-11-13T07:03:28.614Z,100856.19
2022-11-13T07:06:22.292Z,100855.22
2022-11-13T07:09:10.295Z,100868.28
2022-11-13T07:11:58.368Z,100864.19
2022-11-13T07:14:46.351Z,100867.78
2022-11-13T07:17:34.328Z,100871.97
2022-11-13T07:20:22.317Z,100870.31
2022-11-13T07:23:10.633Z,100855.09
2022-11-13T07:25:58.590Z,100864.16
2022-11-13T07:28:47.653Z,100858.00
2022-11-13T07:31:36.072Z,100849.41
2022-11-13T07:34:25.877Z,100853.22
2022-11-13T07:37:13.866Z,100848.81
2022-11-13T07:40:02.596Z,100849.50
2022-11-13T07:43:01.965Z,100839.94
2022-11-13T07:45:54.603Z,100854.66
2022-11-13T07:48:42.726Z,100855.56
2022-11-13T07:51:30.793Z,100854.22
2022-11-13T07:54:18.823Z,100861.53
2022-11-13T07:57:06.754Z,100846.75
2022-11-13T07:59:54.781Z,100847.19
2022-11-13T08:02:42.719Z,100850.22
2022-11-13T08:05:30.926Z,100842.03
2022-11-13T08:08:18.983Z,100845.50
2022-11-13T08:11:09.530Z,100849.19
2022-11-13T08:13:57.462Z,100840.16
2022-11-13T08:16:45.570Z,100841.22
2022-11-13T08:19:33.458Z,100837.69
2022-11-13T08:22:21.531Z,100837.03
2022-11-13T08:25:09.599Z,100835.13
2022-11-13T08:27:59.890Z,100824.94
2022-11-13T08:30:47.921Z,100819.94
2022-11-13T08:33:35.790Z,100802.06
2022-11-13T08:36:24.200Z,100805.47
2022-11-13T08:39:15.216Z,100806.25
2022-11-13T08:42:04.895Z,100800.81
2022-11-13T08:44:55.204Z,100801.22
2022-11-13T08:47:43.091Z,100793.97
2022-11-13T08:50:33.150Z,100797.22
2022-11-13T08:53:22.824Z,100785.72
2022-11-13T08:56:10.744Z,100784.19
2022-11-13T08:59:00.989Z,100779.94
2022-11-13T09:01:49.077Z,100775.13
2022-11-13T09:04:37.045Z,100780.31
2022-11-13T09:07:27.644Z,100773.00
2022-11-13T09:10:17.900Z,100765.41
2022-11-13T09:13:08.982Z,100768.00
2022-11-13T09:15:59.698Z,100777.97
2022-11-13T09:18:51.614Z,100772.00
2022-11-13T09:21:39.479Z,100755.75
2022-11-13T09:24:27.538Z,100750.47
2022-11-13T09:27:18.593Z,100743.19
2022-11-13T09:30:07.292Z,100741.13
2022-11-13T09:33:00.724Z,100725.53
2022-11-13T09:35:48.736Z,100729.91
2022-11-13T09:38:36.668Z,100737.03
2022-11-13T09:41:31.499Z,100727.03
2022-11-13T09:44:47.086Z,100727.84
2022-11-13T09:47:42.676Z,100734.88
2022-11-13T09:50:32.000Z,100731.97
2022-11-13T09:53:22.355Z,100732.81
2022-11-13T09:56:27.860Z,100733.72
2022-11-13T09:59:29.225Z,100740.97
2022-11-13T10:02:54.091Z,100729.59
2022-11-13T10:06:21.372Z,100723.00
2022-11-13T10:09:32.080Z,100711.47
2022-11-13T10:12:29.129Z,100705.66
2022-11-13T10:15:20.515Z,100702.94
2022-11-13T10:18:33.788Z,100689.66
2022-11-13T10:21:39.408Z,100695.38
2022-11-13T10:24:40.955Z,100689.53
2022-11-13T10:27:29.642Z,100690.72
2022-11-13T10:30:21.033Z,100686.19
2022-11-13T10:33:18.817Z,100681.66
2022-11-13T10:36:37.064Z,100669.06
2022-11-13T10:39:27.830Z,100663.63
2022-11-13T10:42:36.999Z,100660.47
2022-11-13T10:45:26.638Z,100651.03
2022-11-13T10:48:50.164Z,100640.13
2022-11-13T10:53:01.585Z,100631.38
2022-11-13T10:59:55.869Z,100609.78
2022-11-13T11:03:01.675Z,100601.72
2022-11-13T11:06:56.375Z,100592.59
2022-11-13T11:10:27.977Z,100576.78
2022-11-13T11:13:44.651Z,100578.94
2022-11-13T11:16:49.441Z,100561.59
2022-11-13T11:20:42.506Z,100553.38
2022-11-13T11:24:26.120Z,100543.59
2022-11-13T11:31:45.280Z,100509.00
2022-11-13T11:44:58.383Z,100452.50
2022-11-13T11:49:11.791Z,100457.31
2022-11-13T11:53:05.268Z,100456.16
2022-11-13T11:57:11.986Z,100458.31
2022-11-13T12:01:03.319Z,100452.19
2022-11-13T12:08:32.403Z,100460.59
2022-11-13T12:11:38.580Z,100456.44
2022-11-13T12:14:50.957Z,100443.88
2022-11-13T12:18:04.736Z,100444.50
2022-11-13T12:22:30.557Z,100451.22
2022-11-13T12:26:17.349Z,100424.94
2022-11-13T12:29:56.385Z,100433.06
2022-11-13T12:33:29.345Z,100417.41
2022-11-13T12:36:29.378Z,100417.75
2022-11-13T12:40:03.176Z,100429.47
2022-11-13T12:43:32.375Z,100432.19
2022-11-13T12:46:41.606Z,100420.41
2022-11-13T12:50:32.112Z,100429.88
2022-11-13T12:53:45.150Z,100445.72
2022-11-13T12:56:40.759Z,100440.59
2022-11-13T12:59:53.188Z,100428.91
2022-11-13T13:02:59.154Z,100435.63
2022-11-13T13:06:11.978Z,100438.22
2022-11-13T13:09:33.636Z,100424.91
2022-11-13T13:12:39.126Z,100423.09
2022-11-13T13:15:37.093Z,100414.41
2022-11-13T13:18:33.390Z,100405.19
2022-11-13T13:21:22.108Z,100398.91
2022-11-13T13:24:38.598Z,100396.13
2022-11-13T13:27:30.653Z,100385.19
2022-11-13T13:30:27.721Z,100371.56
2022-11-13T13:33:42.311Z,100384.75
2022-11-13T13:36:49.260Z,100376.59
2022-11-13T13:40:11.325Z,100369.47
2022-11-13T13:43:27.364Z,100365.44
2022-11-13T13:46:27.547Z,100343.13
2022-11-13T13:49:24.324Z,100350.72
2022-11-13T13:52:16.213Z,100347.41
2022-11-13T13:55:09.460Z,100341.50
2022-11-13T13:58:02.763Z,100345.75
2022-11-13T14:01:20.265Z,100341.66
2022-11-13T14:04:27.352Z,100332.88
2022-11-13T14:07:30.904Z,100316.84
2022-11-13T14:10:28.580Z,100324.03
2022-11-13T14:13:30.867Z,100322.69
2022-11-13T14:16:19.059Z,100333.53
2022-11-13T14:19:11.447Z,100318.56
2022-11-13T14:22:10.857Z,100309.06
2022-11-13T14:25:04.228Z,100296.41
2022-11-13T14:27:53.179Z,100290.25
2022-11-13T14:30:44.902Z,100275.09
2022-11-13T14:33:44.680Z,100268.72
2022-11-13T14:36:41.219Z,100266.31
2022-11-13T14:39:34.593Z,100251.56
2022-11-13T14:42:29.449Z,100260.16
2022-11-13T14:45:33.764Z,100245.50
2022-11-13T14:48:29.104Z,100240.69
2022-11-13T14:51:30.407Z,100238.25
2022-11-13T14:55:14.397Z,100231.09
2022-11-13T14:57:55.406Z,100228.66
2022-11-13T15:00:43.758Z,100208.63
2022-11-13T15:03:32.567Z,100230.00
2022-11-13T15:06:24.895Z,100226.59
2022-11-13T15:09:16.636Z,100221.22
2022-11-13T15:12:04.850Z,100232.97
2022-11-13T15:14:52.935Z,100225.78
2022-11-13T15:17:43.696Z,100224.81
2022-11-13T15:20:32.828Z,100238.53
2022-11-13T15:23:27.116Z,100241.50
2022-11-13T15:26:15.656Z,100243.75
2022-11-13T15:29:12.696Z,100238.31
2022-11-13T15:32:05.625Z,100238.31
2022-11-13T15:35:01.641Z,100235.66
2022-11-13T15:37:56.526Z,100235.50
2022-11-13T15:40:44.580Z,100240.84
2022-11-13T15:43:36.142Z,100224.63
2022-11-13T15:46:25.294Z,100234.81
2022-11-13T15:49:24.257Z,100218.03
2022-11-13T15:52:17.654Z,100226.97
2022-11-13T15:55:32.870Z,100225.44
2022-11-13T15:58:21.150Z,100220.59
2022-11-13T16:01:32.655Z,100213.78
2022-11-13T16:04:22.295Z,100228.84
2022-11-13T16:07:21.636Z,100229.84
2022-11-13T16:10:12.692Z,100221.44
2022-11-13T16:13:00.634Z,100226.66
2022-11-13T16:15:49.620Z,100227.13
2022-11-13T16:18:43.152Z,100230.53
2022-11-13T16:21:34.097Z,100224.59
2022-11-13T16:24:24.363Z,100235.03
2022-11-13T16:27:32.035Z,100233.03
2022-11-13T16:30:26.980Z,100224.22
2022-11-13T16:33:17.689Z,100219.72
2022-11-13T16:36:10.172Z,100221.47
2022-11-13T16:39:00.081Z,100217.28
2022-11-13T16:41:50.428Z,100222.13
2022-11-13T16:44:38.995Z,100212.09
2022-11-13T16:47:37.654Z,100220.06
2022-11-13T16:50:31.810Z,100216.84
2022-11-13T16:53:20.094Z,100206.63
2022-11-13T16:56:27.545Z,100205.59
2022-11-13T16:59:16.086Z,100215.97
2022-11-13T17:02:04.403Z,100205.88
2022-11-13T17:04:56.030Z,100207.06
2022-11-13T17:07:47.257Z,100190.56
2022-11-13T17:10:35.621Z,100187.72
2022-11-13T17:13:23.753Z,100192.78
2022-11-13T17:16:13.211Z,100189.50
2022-11-13T17:19:03.408Z,100191.06
2022-11-13T17:21:53.979Z,100188.88
2022-11-13T17:24:42.018Z,100189.53
2022-11-13T17:27:30.013Z,100187.56
2022-11-13T17:30:18.073Z,100190.75
2022-11-13T17:33:06.155Z,100191.72
2022-11-13T17:35:55.977Z,100185.22
2022-11-13T17:38:46.144Z,100174.09
2022-11-13T17:41:38.088Z,100172.69
2022-11-13T17:44:30.266Z,100172.91
2022-11-13T17:47:18.789Z,100169.53
2022-11-13T17:50:07.964Z,100172.34
2022-11-13T17:52:56.086Z,100168.75
2022-11-13T17:55:44.858Z,100161.88
2022-11-13T17:58:41.716Z,100166.44
2022-11-13T18:01:31.750Z,100172.56
2022-11-13T18:04:19.996Z,100164.34
2022-11-13T18:07:08.173Z,100159.88
2022-11-13T18:09:59.428Z,100181.38
2022-11-13T18:12:47.674Z,100171.47
2022-11-13T18:15:39.087Z,100179.53
2022-11-13T18:18:28.914Z,100164.75
2022-11-13T18:21:25.606Z,100174.94
2022-11-13T18:24:18.245Z,100176.34
2022-11-13T18:27:13.766Z,100167.56
2022-11-13T18:30:04.065Z,100156.88
2022-11-13T18:32:52.091Z,100165.09
2022-11-13T18:35:40.265Z,100164.56
2022-11-13T18:38:28.680Z,100160.63
2022-11-13T18:41:20.394Z,100172.19
2022-11-13T18:44:10.998Z,100162.84
2022-11-13T18:47:02.044Z,100160.72
2022-11-13T18:49:58.082Z,100161.84
2022-11-13T18:52:46.074Z,100150.13
2022-11-13T18:55:34.010Z,100145.03
2022-11-13T18:58:22.047Z,100149.66
2022-11-13T19:01:22.508Z,100144.69
2022-11-13T19:04:27.444Z,100143.31
2022-11-13T19:07:21.141Z,100120.63
2022-11-13T19:10:09.629Z,100130.56
2022-11-13T19:12:57.544Z,100125.94
2022-11-13T19:15:47.652Z,100125.09
2022-11-13T19:18:38.087Z,100122.16
2022-11-13T19:21:30.640Z,100119.59
2022-11-13T19:24:18.662Z,100116.16
2022-11-13T19:27:09.350Z,100117.78
2022-11-13T19:29:57.830Z,100107.63
2022-11-13T19:32:45.773Z,100110.72
2022-11-13T19:35:38.927Z,100112.47
2022-11-13T19:38:33.024Z,100105.31
2022-11-13T19:41:22.938Z,100105.28
2022-11-13T19:44:13.451Z,100111.25
2022-11-13T19:47:01.417Z,100108.47
2022-11-13T19:49:49.680Z,100109.50
2022-11-13T19:52:38.721Z,100107.53
2022-11-13T19:55:26.706Z,100116.31
2022-11-13T19:58:20.706Z,100087.44
2022-11-13T20:01:11.744Z,100104.59
2022-11-13T20:04:04.119Z,100089.00
2022-11-13T20:06:52.145Z,100100.06
2022-11-13T20:09:47.490Z,100094.66
2022-11-13T20:12:35.921Z,100094.59
2022-11-13T20:15:37.140Z,100087.50
2022-11-13T20:18:33.556Z,100083.75
2022-11-13T20:21:28.693Z,100077.34
2022-11-13T20:24:19.824Z,100097.41
2022-11-13T20:27:09.419Z,100077.06
2022-11-13T20:30:02.937Z,100090.00
2022-11-13T20:32:53.742Z,100092.00
2022-11-13T20:35:46.921Z,100082.59
2022-11-13T20:38:41.621Z,100087.41
2022-11-13T20:41:32.374Z,100077.19
2022-11-13T20:44:46.917Z,100098.56
2022-11-13T20:47:42.003Z,100096.84
2022-11-13T20:50:34.763Z,100098.41
2022-11-13T20:53:29.797Z,100103.16
2022-11-13T20:56:23.586Z,100092.31
2022-11-13T20:59:11.846Z,100083.94
2022-11-13T21:02:00.062Z,100089.41
2022-11-13T21:04:54.207Z,100088.25
2022-11-13T21:07:51.393Z,100099.88
2022-11-13T21:10:39.503Z,100093.19
2022-11-13T21:13:32.020Z,100098.31
2022-11-13T21:16:20.267Z,100101.81
2022-11-13T21:19:09.968Z,100104.19
2022-11-13T21:21:57.810Z,100096.72
2022-11-13T21:24:45.621Z,100094.75
2022-11-13T21:27:33.571Z,100094.78
2022-11-13T21:30:22.356Z,100092.03
2022-11-13T21:33:10.225Z,100085.72
2022-11-13T21:36:05.281Z,100080.78
2022-11-13T21:38:55.068Z,100087.50
2022-11-13T21:41:42.840Z,100086.28
2022-11-13T21:44:49.669Z,100079.06
2022-11-13T21:47:37.559Z,100081.97
2022-11-13T21:50:27.994Z,100066.78
2022-11-13T21:53:15.840Z,100067.16
2022-11-13T21:56:04.546Z,100067.13
2022-11-13T21:58:56.038Z,100059.81
2022-11-13T22:01:44.064Z,100062.84
2022-11-13T22:04:31.966Z,100054.25
2022-11-13T22:07:19.918Z,100057.09
2022-11-13T22:10:08.744Z,100057.03
2022-11-13T22:12:56.737Z,100052.31
2022-11-13T22:15:44.720Z,100061.28
2022-11-13T22:18:33.520Z,100056.59
2022-11-13T22:21:22.957Z,100049.63
2022-11-13T22:24:12.054Z,100052.25
2022-11-13T22:26:59.922Z,100048.84
2022-11-13T22:29:47.777Z,100043.38
2022-11-13T22:32:35.538Z,100043.56
2022-11-13T22:35:23.359Z,100035.69
2022-11-13T22:38:12.339Z,100042.38
2022-11-13T22:41:05.333Z,100040.88
2022-11-13T22:43:57.110Z,100038.16
2022-11-13T22:46:44.892Z,100037.00
2022-11-13T22:49:32.670Z,100032.91
2022-11-13T22:52:20.512Z,100027.06
2022-11-13T22:55:08.647Z,100017.66
2022-11-13T22:57:59.216Z,100025.09
2022-11-13T23:00:47.097Z,100034.06
2022-11-13T23:03:40.268Z,100021.13
2022-11-13T23:06:31.717Z,100015.50
2022-11-13T23:09:22.378Z,100009.69
2022-11-13T23:12:10.480Z,100010.16
2022-11-13T23:14:58.483Z,99999.06
2022-11-13T23:17:46.949Z,100006.28
2022-11-13T23:20:40.326Z,100005.84
2022-11-13T23:23:28.562Z,100005.22
2022-11-13T23:26:17.256Z,99997.44
2022-11-13T23:29:05.040Z,99994.88
2022-11-13T23:31:52.872Z,99997.16
2022-11-13T23:34:58.790Z,99996.31
2022-11-13T23:37:47.594Z,100002.09
2022-11-13T23:40:35.666Z,99988.66
2022-11-13T23:43:36.414Z,99996.81
2022-11-13T23:46:32.733Z,99989.50
2022-11-13T23:49:20.637Z,100005.81
2022-11-13T23:52:08.476Z,99994.25
2022-11-13T23:54:56.433Z,99996.56
2022-11-13T23:57:44.383Z,99988.00
